Flight Track Log - Related Links

Times and Time Zones

All times are in EDT time to prevent confusion due to time zone crossing. See the QXE649A flight status page for this flight to view local times or setup timezone preferences in your user account.

Time Position Orientation Groundspeed Altitude Reporting Facility
EDT Latitude Longitude Course Direction KTS MPH feet Rate Location/Type
Fri 04:13:16 PM 48.7500 -122.5333 191° South 130 150 1,800  Level Vancouver Center
Fri 04:14:16 PM 48.7000 -122.5833 213° Southwest 180 207 3,100 1,900 Climbing Vancouver Center
Fri 04:15:16 PM 48.6500 -122.5667 168° South 220 253 5,600 2,532 Climbing Vancouver Center
Fri 04:16:00 PM 48.4684 -122.6379 194° South  Level FlightAware Approximate
Fri 04:16:05 PM 48.6122 -122.5578 171° South 224 258 7,700  Level Seattle Center
Fri 04:16:39 PM 48.5797 -122.5647 188° South 221 254 8,700 758 Climbing Seattle Center
Fri 04:17:00 PM 48.4051 -122.6622 194° South  Level FlightAware Approximate
Fri 04:17:40 PM 48.5125 -122.6008 200° South 239 275 8,900  Level Seattle Center
Fri 04:18:00 PM 48.3417 -122.6857 191° South  Level FlightAware Approximate
Fri 04:18:41 PM 48.4378 -122.6383 198° South 269 310 9,600  Level Seattle Center
Fri 04:19:42 PM 48.3617 -122.6706 196° South 285 328 11,100 1,623 Climbing Seattle Center
Fri 04:20:43 PM 48.2883 -122.7053 197° South 280 322 12,900 934 Climbing Seattle Center
Fri 04:21:44 PM 48.2122 -122.7431 198° South 293 337 13,000  Climbing Seattle Center
Fri 04:22:00 PM 48.1772 -122.7656 203° Southwest 322 371 12,900 -98 Descending Seattle Center
Fri 04:22:45 PM 48.1125 -122.8039 202° Southwest 327 376 12,900 98 Level Seattle Center
Fri 04:23:01 PM 48.0928 -122.8186 207° Southwest 328 377 13,000  Climbing Seattle Center
Fri 04:23:46 PM 48.0308 -122.8189 180° South 320 368 12,900 -98 Descending Seattle Center
Fri 04:24:02 PM 48.0106 -122.7908 137° Southeast 326 375 12,900 -689 Level Seattle Center
Fri 04:24:47 PM 47.9719 -122.7164 128° Southeast 327 376 12,200 -1,082 Descending Seattle Center
Fri 04:25:03 PM 47.9531 -122.6836 131° Southeast 328 377 11,800 -1,574 Descending Seattle Center
Fri 04:25:48 PM 47.9178 -122.6139 127° Southeast 319 367 10,600 -1,770 Descending Seattle Center
Fri 04:26:04 PM 47.8986 -122.5814 131° Southeast 313 360 10,000 -1,645 Descending Seattle Center
Fri 04:26:50 PM 47.8633 -122.5153 128° Southeast 310 357 8,900 -1,041 Descending Seattle Center
Fri 04:28:05 PM 47.8011 -122.4042 130° Southeast 222 255 7,900 -1,082 Descending Seattle Center
Fri 04:28:52 PM 47.7708 -122.3528 131° Southeast 215 247 6,700 -1,056 Descending Seattle Center
Fri 04:29:53 PM 47.7300 -122.3056 142° Southeast 196 226 6,000 -836 Descending Seattle Center
Fri 04:30:54 PM 47.6753 -122.3111 184° South 184 212 5,000 -1,015 Descending Seattle Center
Fri 04:32:09 PM 47.6131 -122.3106 180° South 181 208 3,700 -885 Descending Seattle Center
Fri 04:32:56 PM 47.5722 -122.3100 179° South 188 216 3,200 -1,056 Descending Seattle Center
Fri 04:33:57 PM 47.5225 -122.3111 181° South 183 211 1,800 -1,131 Descending Seattle Center
Fri 04:34:58 PM 47.4847 -122.3108 180° South 131 151 900 -689 Descending Seattle Center
Fri 04:35:59 PM 47.4536 -122.3125 182° South 123 142 400 -492 Descending Seattle Center
Fri 04:37:00 PM 47.4499 -122.3118 170° South  Level Estimated

Login

Don't have an account? Register now (free) for customized features, flight alerts, and more!